地図

経路データ

SID SEASON NUMBER BASIN SUBBASIN NAME ISO_TIME NATURE LAT LON WMO_WIND WMO_PRES WMO_AGENCY TRACK_TYPE DIST2LAND LANDFALL IFLAG USA_AGENCY USA_ATCF_ID USA_LAT USA_LON USA_RECORD USA_STATUS USA_WIND USA_PRES USA_SSHS USA_R34_NE USA_R34_SE USA_R34_SW USA_R34_NW USA_R50_NE USA_R50_SE USA_R50_SW USA_R50_NW USA_R64_NE USA_R64_SE USA_R64_SW USA_R64_NW USA_POCI USA_ROCI USA_RMW USA_EYE TOKYO_LAT TOKYO_LON TOKYO_GRADE TOKYO_WIND TOKYO_PRES TOKYO_R50_DIR TOKYO_R50_LONG TOKYO_R50_SHORT TOKYO_R30_DIR TOKYO_R30_LONG TOKYO_R30_SHORT TOKYO_LAND CMA_LAT CMA_LON CMA_CAT CMA_WIND CMA_PRES HKO_LAT HKO_LON HKO_CAT HKO_WIND HKO_PRES NEWDELHI_LAT NEWDELHI_LON NEWDELHI_GRADE NEWDELHI_WIND NEWDELHI_PRES NEWDELHI_CI NEWDELHI_DP NEWDELHI_POCI REUNION_LAT REUNION_LON REUNION_TYPE REUNION_WIND REUNION_PRES REUNION_TNUM REUNION_CI REUNION_RMW REUNION_R34_NE REUNION_R34_SE REUNION_R34_SW REUNION_R34_NW REUNION_R50_NE REUNION_R50_SE REUNION_R50_SW REUNION_R50_NW REUNION_R64_NE REUNION_R64_SE REUNION_R64_SW REUNION_R64_NW BOM_LAT BOM_LON BOM_TYPE BOM_WIND BOM_PRES BOM_TNUM BOM_CI BOM_RMW BOM_R34_NE BOM_R34_SE BOM_R34_SW BOM_R34_NW BOM_R50_NE BOM_R50_SE BOM_R50_SW BOM_R50_NW BOM_R64_NE BOM_R64_SE BOM_R64_SW BOM_R64_NW BOM_ROCI BOM_POCI BOM_EYE BOM_POS_METHOD BOM_PRES_METHOD NADI_LAT NADI_LON NADI_CAT NADI_WIND NADI_PRES WELLINGTON_LAT WELLINGTON_LON WELLINGTON_WIND WELLINGTON_PRES DS824_LAT DS824_LON DS824_STAGE DS824_WIND DS824_PRES TD9636_LAT TD9636_LON TD9636_STAGE TD9636_WIND TD9636_PRES TD9635_LAT TD9635_LON TD9635_WIND TD9635_PRES TD9635_ROCI NEUMANN_LAT NEUMANN_LON NEUMANN_CLASS NEUMANN_WIND NEUMANN_PRES MLC_LAT MLC_LON MLC_CLASS MLC_WIND MLC_PRES USA_GUST BOM_GUST BOM_GUST_PER REUNION_GUST REUNION_GUST_PER USA_SEAHGT USA_SEARAD_NE USA_SEARAD_SE USA_SEARAD_SW USA_SEARAD_NW STORM_SPEED STORM_DIR
1941058S15069 1941 15 SI MM NOT_NAMED 1941-02-26 18:00:00 NR -15.2000 68.6000 main 1277 1248 __________O___ -1 -15.2000 68.6000 2 5 225
1941058S15069 1941 15 SI MM NOT_NAMED 1941-02-26 21:00:00 NR -15.3908 68.3971 main 1248 1204 __________P___ -1 -15.3908 68.3971 2 7 225
1941058S15069 1941 15 SI MM NOT_NAMED 1941-02-27 00:00:00 TS -15.6889 68.0964 main 1204 1175 _________OP___ -1 -16.0000 67.8000 TC 35 -15.5851 68.1953 2 8 223
1941058S15069 1941 15 SI MM NOT_NAMED 1941-02-27 03:00:00 TS -15.9421 67.8614 main 1175 1131 _________PP___ -1 -16.2525 67.5926 TC 35 -15.7870 67.9958 2 7 220
1941058S15069 1941 15 SI MM NOT_NAMED 1941-02-27 06:00:00 TS -16.2143 67.6286 main 1131 1098 _________OO___ -1 -16.5000 67.4000 TC 35 -16.0000 67.8000 2 7 218
1941058S15069 1941 15 SI MM NOT_NAMED 1941-02-27 09:00:00 TS -16.4850 67.4223 main 1098 1079 _________PP___ -1 -16.7425 67.2349 TC 35 -16.2275 67.6096 2 6 214
1941058S15069 1941 15 SI MM NOT_NAMED 1941-02-27 12:00:00 TS -16.7350 67.2637 main 1079 1046 _________OP___ -1 -17.0000 67.1000 TC 35 -16.4700 67.4274 2 6 208
1941058S15069 1941 15 SI MM NOT_NAMED 1941-02-27 15:00:00 TS -17.0100 67.1282 main 1046 1024 _________PP___ -1 -17.2925 66.9999 TC 35 -16.7275 67.2565 2 6 204
1941058S15069 1941 15 SI MM NOT_NAMED 1941-02-27 18:00:00 TS -17.3000 67.0000 main 1024 1003 _________OO___ -1 -17.6000 66.9000 TC 35 -17.0000 67.1000 2 7 204
1941058S15069 1941 15 SI MM NOT_NAMED 1941-02-27 21:00:00 TS -17.6298 66.8456 main 993 972 _________PP___ -1 -17.9375 66.7426 TC 35 -17.3221 66.9485 2 7 204
1941058S15069 1941 15 SI MM NOT_NAMED 1941-02-28 00:00:00 TS -17.9262 66.7063 main 972 956 _________OP___ -1 -18.2000 66.6000 TC 35 -17.6525 66.8127 2 5 204
1941058S15069 1941 15 SI MM NOT_NAMED 1941-02-28 03:00:00 TS -18.1183 66.6152 main 956 953 _________PP___ -1 -18.2800 66.5349 TC 35 -17.9565 66.6954 2 4 205
1941058S15069 1941 15 SI MM NOT_NAMED 1941-02-28 06:00:00 TS -18.2500 66.5500 main 953 937 _________OO___ -1 -18.3000 66.5000 TC 35 -18.2000 66.6000 2 3 208
1941058S15069 1941 15 SI MM NOT_NAMED 1941-02-28 09:00:00 TS -18.3583 66.4813 main 937 926 _________PP___ -1 -18.3850 66.4425 TC 35 -18.3315 66.5201 2 2 209
1941058S15069 1941 15 SI MM NOT_NAMED 1941-02-28 12:00:00 TS -18.4512 66.4311 main 924 924 _________OP___ -1 -18.5000 66.4000 TC 35 -18.4024 66.4622 2 2 199
1941058S15069 1941 15 SI MM NOT_NAMED 1941-02-28 15:00:00 TS -18.5486 66.4079 main 924 921 _________PP___ -1 -18.6500 66.3925 TC 35 -18.4472 66.4233 2 2 190
1941058S15069 1941 15 SI MM NOT_NAMED 1941-02-28 18:00:00 TS -18.6500 66.4000 main 921 918 _________OO___ -1 -18.8000 66.4000 TC 35 -18.5000 66.4000 2 2 0
1941058S15069 1941 15 SI MM NOT_NAMED 1941-02-28 21:00:00 TS -18.7553 66.3928 main 916 914 _________PP___ -1 -18.9000 66.4000 TC 35 -18.6106 66.3856 2 2 0
1941058S15069 1941 15 SI MM NOT_NAMED 1941-03-01 00:00:00 TS -18.8675 66.3925 main 914 912 _________OP___ -1 -19.0000 66.4000 TC 35 -18.7350 66.3850 2 3 178
1941058S15069 1941 15 SI MM NOT_NAMED 1941-03-01 03:00:00 TS -19.0084 66.3959 main 912 910 _________PP___ -1 -19.1500 66.4000 TC 35 -18.8669 66.3918 2 3 179
1941058S15069 1941 15 SI MM NOT_NAMED 1941-03-01 06:00:00 TS -19.1500 66.4000 main 910 906 _________OO___ -1 -19.3000 66.4000 TC 35 -19.0000 66.4000 2 3 0
1941058S15069 1941 15 SI MM NOT_NAMED 1941-03-01 09:00:00 TS -19.2625 66.4020 main 906 904 _________PP___ -1 -19.4000 66.4000 TC 35 -19.1250 66.4040 2 2 0
1941058S15069 1941 15 SI MM NOT_NAMED 1941-03-01 12:00:00 TS -19.3750 66.4037 main 904 903 _________OP___ -1 -19.5000 66.4000 TC 35 -19.2500 66.4075 2 3 178
1941058S15069 1941 15 SI MM NOT_NAMED 1941-03-01 15:00:00 TS -19.5125 66.4073 main 903 902 _________PP___ -1 -19.6500 66.4075 TC 35 -19.3750 66.4072 2 3 0
1941058S15069 1941 15 SI MM NOT_NAMED 1941-03-01 18:00:00 TS -19.6286 66.4000 main 902 900 _________OO___ -1 -19.8000 66.4000 TC 35 -19.5000 66.4000 2 2 192
1941058S15069 1941 15 SI MM NOT_NAMED 1941-03-01 21:00:00 TS -19.7208 66.3759 main 900 889 _________PP___ -1 -19.9125 66.3600 TC 35 -19.6250 66.3838 2 2 198
1941058S15069 1941 15 SI MM NOT_NAMED 1941-03-02 00:00:00 TS -19.8125 66.3450 main 889 888 _________OP___ -1 -20.0000 66.3000 TC 35 -19.7500 66.3601 2 2 193
1941058S15069 1941 15 SI MM NOT_NAMED 1941-03-02 03:00:00 NR -19.8750 66.3313 main 888 887 __________P___ -1 TC -19.8750 66.3313 2 2 189
1941058S15069 1941 15 SI MM NOT_NAMED 1941-03-02 06:00:00 NR -20.0000 66.3000 main 887 __________O___ -1 -20.0000 66.3000 2 3 198

IBTrACS Databaseについて

本データベースは、米国NOAAが公開する1842年以降の世界の熱帯低気圧のベストトラックデータアーカイブInternational Best Track Archive for Climate Stewardship (IBTrACS)を、ウェブで閲覧しやすい形式に変換したものです。

最終更新日:2021-11-26